sensor_id;sensor_type;location;lat;lon;timestamp;P1;durP1;ratioP1;P2;durP2;ratioP2
38085;SDS011;23896;50.678;10.924;2023-06-10T00:01:20;6.20;;;5.70;;
38085;SDS011;23896;50.678;10.924;2023-06-10T00:03:54;7.32;;;5.97;;
38085;SDS011;23896;50.678;10.924;2023-06-10T00:06:21;6.88;;;5.22;;
38085;SDS011;23896;50.678;10.924;2023-06-10T00:08:50;6.57;;;5.50;;
38085;SDS011;23896;50.678;10.924;2023-06-10T00:11:18;8.32;;;5.88;;
38085;SDS011;23896;50.678;10.924;2023-06-10T00:13:46;6.38;;;5.75;;
38085;SDS011;23896;50.678;10.924;2023-06-10T00:16:15;6.95;;;6.15;;
38085;SDS011;23896;50.678;10.924;2023-06-10T00:18:43;7.03;;;6.05;;
38085;SDS011;23896;50.678;10.924;2023-06-10T00:21:11;7.85;;;7.05;;
38085;SDS011;23896;50.678;10.924;2023-06-10T00:23:40;7.18;;;6.57;;
38085;SDS011;23896;50.678;10.924;2023-06-10T00:26:08;7.85;;;6.95;;
38085;SDS011;23896;50.678;10.924;2023-06-10T00:28:39;9.48;;;6.00;;
38085;SDS011;23896;50.678;10.924;2023-06-10T00:31:13;8.35;;;6.72;;
38085;SDS011;23896;50.678;10.924;2023-06-10T00:33:45;6.60;;;6.00;;
38085;SDS011;23896;50.678;10.924;2023-06-10T00:36:13;7.65;;;6.90;;
38085;SDS011;23896;50.678;10.924;2023-06-10T00:38:44;5.88;;;5.32;;
38085;SDS011;23896;50.678;10.924;2023-06-10T00:41:12;5.53;;;5.03;;
38085;SDS011;23896;50.678;10.924;2023-06-10T00:43:38;7.35;;;6.65;;
38085;SDS011;23896;50.678;10.924;2023-06-10T00:46:06;7.40;;;6.38;;
38085;SDS011;23896;50.678;10.924;2023-06-10T00:48:33;6.85;;;6.25;;
38085;SDS011;23896;50.678;10.924;2023-06-10T00:51:03;6.25;;;5.65;;
38085;SDS011;23896;50.678;10.924;2023-06-10T00:53:31;6.13;;;5.63;;
38085;SDS011;23896;50.678;10.924;2023-06-10T00:56:01;9.10;;;6.07;;
38085;SDS011;23896;50.678;10.924;2023-06-10T00:58:31;6.32;;;5.70;;
38085;SDS011;23896;50.678;10.924;2023-06-10T01:00:58;6.65;;;5.65;;
38085;SDS011;23896;50.678;10.924;2023-06-10T01:03:28;7.28;;;5.35;;
38085;SDS011;23896;50.678;10.924;2023-06-10T01:06:00;7.03;;;5.55;;
38085;SDS011;23896;50.678;10.924;2023-06-10T01:08:40;6.85;;;6.10;;
38085;SDS011;23896;50.678;10.924;2023-06-10T01:11:17;7.00;;;6.30;;
38085;SDS011;23896;50.678;10.924;2023-06-10T01:13:54;7.18;;;6.28;;
38085;SDS011;23896;50.678;10.924;2023-06-10T01:16:28;8.88;;;6.82;;
38085;SDS011;23896;50.678;10.924;2023-06-10T01:19:04;7.13;;;6.53;;
38085;SDS011;23896;50.678;10.924;2023-06-10T01:21:37;6.97;;;6.18;;
38085;SDS011;23896;50.678;10.924;2023-06-10T01:24:27;6.72;;;5.38;;
38085;SDS011;23896;50.678;10.924;2023-06-10T01:27:13;6.18;;;5.57;;
38085;SDS011;23896;50.678;10.924;2023-06-10T01:29:50;6.05;;;5.55;;
38085;SDS011;23896;50.678;10.924;2023-06-10T01:32:23;6.82;;;6.13;;
38085;SDS011;23896;50.678;10.924;2023-06-10T01:35:08;7.00;;;5.50;;
38085;SDS011;23896;50.678;10.924;2023-06-10T01:37:38;6.90;;;6.07;;
38085;SDS011;23896;50.678;10.924;2023-06-10T01:40:15;6.40;;;5.80;;
38085;SDS011;23896;50.678;10.924;2023-06-10T01:42:51;7.03;;;6.35;;
38085;SDS011;23896;50.678;10.924;2023-06-10T01:45:29;6.68;;;6.00;;
38085;SDS011;23896;50.678;10.924;2023-06-10T01:48:18;6.68;;;6.05;;
38085;SDS011;23896;50.678;10.924;2023-06-10T01:50:45;6.63;;;5.90;;
38085;SDS011;23896;50.678;10.924;2023-06-10T01:53:24;7.38;;;6.78;;
38085;SDS011;23896;50.678;10.924;2023-06-10T01:55:55;7.35;;;6.50;;
38085;SDS011;23896;50.678;10.924;2023-06-10T01:58:24;7.43;;;6.68;;
38085;SDS011;23896;50.678;10.924;2023-06-10T02:00:54;6.15;;;5.65;;
38085;SDS011;23896;50.678;10.924;2023-06-10T02:03:21;6.85;;;6.07;;
38085;SDS011;23896;50.678;10.924;2023-06-10T02:05:49;6.70;;;6.10;;
38085;SDS011;23896;50.678;10.924;2023-06-10T02:08:17;7.88;;;5.80;;
38085;SDS011;23896;50.678;10.924;2023-06-10T02:10:44;7.88;;;5.57;;
38085;SDS011;23896;50.678;10.924;2023-06-10T02:13:15;6.80;;;6.18;;
38085;SDS011;23896;50.678;10.924;2023-06-10T02:15:45;6.50;;;5.85;;
38085;SDS011;23896;50.678;10.924;2023-06-10T02:18:12;7.13;;;5.50;;
38085;SDS011;23896;50.678;10.924;2023-06-10T02:20:39;10.38;;;6.03;;
38085;SDS011;23896;50.678;10.924;2023-06-10T02:23:07;7.75;;;6.00;;
38085;SDS011;23896;50.678;10.924;2023-06-10T02:25:37;7.18;;;6.47;;
38085;SDS011;23896;50.678;10.924;2023-06-10T02:28:04;7.35;;;6.72;;
38085;SDS011;23896;50.678;10.924;2023-06-10T02:30:32;7.90;;;7.05;;
38085;SDS011;23896;50.678;10.924;2023-06-10T02:33:00;7.97;;;7.10;;
38085;SDS011;23896;50.678;10.924;2023-06-10T02:35:30;7.68;;;6.60;;
38085;SDS011;23896;50.678;10.924;2023-06-10T02:37:58;9.85;;;6.88;;
38085;SDS011;23896;50.678;10.924;2023-06-10T02:40:29;7.78;;;6.97;;
38085;SDS011;23896;50.678;10.924;2023-06-10T02:42:58;8.20;;;6.68;;
38085;SDS011;23896;50.678;10.924;2023-06-10T02:45:28;7.45;;;6.63;;
38085;SDS011;23896;50.678;10.924;2023-06-10T02:47:55;8.38;;;7.55;;
38085;SDS011;23896;50.678;10.924;2023-06-10T02:50:28;7.40;;;6.80;;
38085;SDS011;23896;50.678;10.924;2023-06-10T02:53:11;7.40;;;6.70;;
38085;SDS011;23896;50.678;10.924;2023-06-10T02:56:04;8.10;;;7.40;;
38085;SDS011;23896;50.678;10.924;2023-06-10T02:58:39;6.88;;;6.18;;
38085;SDS011;23896;50.678;10.924;2023-06-10T03:01:16;6.95;;;6.35;;
38085;SDS011;23896;50.678;10.924;2023-06-10T03:03:47;9.02;;;6.90;;
38085;SDS011;23896;50.678;10.924;2023-06-10T03:06:16;8.13;;;7.32;;
38085;SDS011;23896;50.678;10.924;2023-06-10T03:08:43;9.52;;;6.93;;
38085;SDS011;23896;50.678;10.924;2023-06-10T03:11:11;7.40;;;6.80;;
38085;SDS011;23896;50.678;10.924;2023-06-10T03:13:38;8.35;;;7.05;;
38085;SDS011;23896;50.678;10.924;2023-06-10T03:16:06;7.70;;;6.90;;
38085;SDS011;23896;50.678;10.924;2023-06-10T03:18:33;7.90;;;7.03;;
38085;SDS011;23896;50.678;10.924;2023-06-10T03:20:59;7.05;;;6.35;;
38085;SDS011;23896;50.678;10.924;2023-06-10T03:23:25;7.35;;;6.57;;
38085;SDS011;23896;50.678;10.924;2023-06-10T03:25:53;7.55;;;6.85;;
38085;SDS011;23896;50.678;10.924;2023-06-10T03:28:20;9.45;;;7.18;;
38085;SDS011;23896;50.678;10.924;2023-06-10T03:30:46;7.13;;;6.47;;
38085;SDS011;23896;50.678;10.924;2023-06-10T03:33:12;7.90;;;7.07;;
38085;SDS011;23896;50.678;10.924;2023-06-10T03:35:39;7.80;;;6.80;;
38085;SDS011;23896;50.678;10.924;2023-06-10T03:38:05;9.27;;;6.88;;
38085;SDS011;23896;50.678;10.924;2023-06-10T03:40:32;7.90;;;7.20;;
38085;SDS011;23896;50.678;10.924;2023-06-10T03:42:58;7.50;;;6.75;;
38085;SDS011;23896;50.678;10.924;2023-06-10T03:45:27;9.52;;;7.47;;
38085;SDS011;23896;50.678;10.924;2023-06-10T03:47:56;8.35;;;7.60;;
38085;SDS011;23896;50.678;10.924;2023-06-10T03:50:25;8.25;;;7.45;;
38085;SDS011;23896;50.678;10.924;2023-06-10T03:52:52;7.90;;;7.13;;
38085;SDS011;23896;50.678;10.924;2023-06-10T03:55:21;7.75;;;6.55;;
38085;SDS011;23896;50.678;10.924;2023-06-10T03:57:49;8.80;;;8.00;;
38085;SDS011;23896;50.678;10.924;2023-06-10T04:00:18;8.57;;;7.00;;
38085;SDS011;23896;50.678;10.924;2023-06-10T04:02:46;7.57;;;6.78;;
38085;SDS011;23896;50.678;10.924;2023-06-10T04:05:17;7.18;;;6.57;;
38085;SDS011;23896;50.678;10.924;2023-06-10T04:07:47;8.57;;;6.25;;
38085;SDS011;23896;50.678;10.924;2023-06-10T04:10:16;7.97;;;7.28;;
38085;SDS011;23896;50.678;10.924;2023-06-10T04:12:43;6.97;;;6.38;;
38085;SDS011;23896;50.678;10.924;2023-06-10T04:15:09;8.07;;;7.13;;
38085;SDS011;23896;50.678;10.924;2023-06-10T04:17:35;8.63;;;7.85;;
38085;SDS011;23896;50.678;10.924;2023-06-10T04:20:02;9.30;;;7.20;;
38085;SDS011;23896;50.678;10.924;2023-06-10T04:22:34;8.32;;;7.53;;
38085;SDS011;23896;50.678;10.924;2023-06-10T04:25:04;7.32;;;6.72;;
38085;SDS011;23896;50.678;10.924;2023-06-10T04:27:32;7.50;;;6.65;;
38085;SDS011;23896;50.678;10.924;2023-06-10T04:29:58;9.63;;;7.03;;
38085;SDS011;23896;50.678;10.924;2023-06-10T04:32:25;9.38;;;6.38;;
38085;SDS011;23896;50.678;10.924;2023-06-10T04:34:51;6.95;;;6.07;;
38085;SDS011;23896;50.678;10.924;2023-06-10T04:37:17;7.97;;;7.22;;
38085;SDS011;23896;50.678;10.924;2023-06-10T04:39:44;7.47;;;6.75;;
38085;SDS011;23896;50.678;10.924;2023-06-10T04:42:13;7.68;;;6.97;;
38085;SDS011;23896;50.678;10.924;2023-06-10T04:44:39;7.47;;;6.85;;
38085;SDS011;23896;50.678;10.924;2023-06-10T04:47:05;12.15;;;7.63;;
38085;SDS011;23896;50.678;10.924;2023-06-10T04:49:33;9.02;;;7.03;;
38085;SDS011;23896;50.678;10.924;2023-06-10T04:51:59;7.05;;;6.35;;
38085;SDS011;23896;50.678;10.924;2023-06-10T04:54:28;9.93;;;7.25;;
38085;SDS011;23896;50.678;10.924;2023-06-10T04:56:54;7.68;;;6.97;;
38085;SDS011;23896;50.678;10.924;2023-06-10T04:59:20;8.23;;;7.43;;
38085;SDS011;23896;50.678;10.924;2023-06-10T05:01:46;7.85;;;7.10;;
38085;SDS011;23896;50.678;10.924;2023-06-10T05:04:12;7.45;;;6.75;;
38085;SDS011;23896;50.678;10.924;2023-06-10T05:06:38;7.35;;;6.75;;
38085;SDS011;23896;50.678;10.924;2023-06-10T05:09:05;7.20;;;6.50;;
38085;SDS011;23896;50.678;10.924;2023-06-10T05:11:31;8.20;;;6.65;;
38085;SDS011;23896;50.678;10.924;2023-06-10T05:13:57;7.38;;;5.97;;
38085;SDS011;23896;50.678;10.924;2023-06-10T05:16:23;8.75;;;6.18;;
38085;SDS011;23896;50.678;10.924;2023-06-10T05:18:49;11.77;;;6.97;;
38085;SDS011;23896;50.678;10.924;2023-06-10T05:21:17;7.15;;;6.25;;
38085;SDS011;23896;50.678;10.924;2023-06-10T05:23:43;10.23;;;5.55;;
38085;SDS011;23896;50.678;10.924;2023-06-10T05:26:09;8.30;;;5.55;;
38085;SDS011;23896;50.678;10.924;2023-06-10T05:28:35;8.85;;;5.70;;
38085;SDS011;23896;50.678;10.924;2023-06-10T05:31:02;6.20;;;5.68;;
38085;SDS011;23896;50.678;10.924;2023-06-10T05:33:28;10.13;;;5.63;;
38085;SDS011;23896;50.678;10.924;2023-06-10T05:35:54;11.05;;;5.95;;
38085;SDS011;23896;50.678;10.924;2023-06-10T05:38:20;10.35;;;6.18;;
38085;SDS011;23896;50.678;10.924;2023-06-10T05:40:47;7.00;;;5.75;;
38085;SDS011;23896;50.678;10.924;2023-06-10T05:43:13;7.43;;;5.95;;
38085;SDS011;23896;50.678;10.924;2023-06-10T05:45:44;8.05;;;6.32;;
38085;SDS011;23896;50.678;10.924;2023-06-10T05:48:11;8.52;;;6.75;;
38085;SDS011;23896;50.678;10.924;2023-06-10T05:50:37;10.63;;;6.50;;
38085;SDS011;23896;50.678;10.924;2023-06-10T05:53:05;6.50;;;4.90;;
38085;SDS011;23896;50.678;10.924;2023-06-10T05:55:36;6.93;;;5.45;;
38085;SDS011;23896;50.678;10.924;2023-06-10T05:58:02;10.30;;;6.43;;
38085;SDS011;23896;50.678;10.924;2023-06-10T06:00:31;9.48;;;5.18;;
38085;SDS011;23896;50.678;10.924;2023-06-10T06:02:57;12.02;;;5.90;;
38085;SDS011;23896;50.678;10.924;2023-06-10T06:05:24;12.43;;;6.57;;
38085;SDS011;23896;50.678;10.924;2023-06-10T06:07:50;11.30;;;6.05;;
38085;SDS011;23896;50.678;10.924;2023-06-10T06:10:23;9.25;;;6.47;;
38085;SDS011;23896;50.678;10.924;2023-06-10T06:12:49;9.93;;;6.28;;
38085;SDS011;23896;50.678;10.924;2023-06-10T06:15:19;8.07;;;5.68;;
38085;SDS011;23896;50.678;10.924;2023-06-10T06:17:48;9.75;;;6.20;;
38085;SDS011;23896;50.678;10.924;2023-06-10T06:20:17;8.60;;;5.95;;
38085;SDS011;23896;50.678;10.924;2023-06-10T06:22:43;8.32;;;6.28;;
38085;SDS011;23896;50.678;10.924;2023-06-10T06:25:09;8.90;;;6.88;;
38085;SDS011;23896;50.678;10.924;2023-06-10T06:27:35;7.15;;;5.47;;
38085;SDS011;23896;50.678;10.924;2023-06-10T06:30:03;11.27;;;6.35;;
38085;SDS011;23896;50.678;10.924;2023-06-10T06:32:33;10.70;;;6.65;;
38085;SDS011;23896;50.678;10.924;2023-06-10T06:34:59;11.27;;;5.78;;
38085;SDS011;23896;50.678;10.924;2023-06-10T06:37:27;7.40;;;6.60;;
38085;SDS011;23896;50.678;10.924;2023-06-10T06:39:53;10.00;;;6.80;;
38085;SDS011;23896;50.678;10.924;2023-06-10T06:42:19;9.57;;;6.13;;
38085;SDS011;23896;50.678;10.924;2023-06-10T06:44:47;11.00;;;7.18;;
38085;SDS011;23896;50.678;10.924;2023-06-10T06:47:13;7.97;;;6.68;;
38085;SDS011;23896;50.678;10.924;2023-06-10T06:49:39;7.88;;;6.88;;
38085;SDS011;23896;50.678;10.924;2023-06-10T06:52:07;16.63;;;9.88;;
38085;SDS011;23896;50.678;10.924;2023-06-10T06:54:36;11.60;;;8.00;;
38085;SDS011;23896;50.678;10.924;2023-06-10T06:57:03;7.93;;;7.20;;
38085;SDS011;23896;50.678;10.924;2023-06-10T06:59:34;7.80;;;6.93;;
38085;SDS011;23896;50.678;10.924;2023-06-10T07:02:00;8.02;;;7.07;;
38085;SDS011;23896;50.678;10.924;2023-06-10T07:04:26;9.65;;;7.93;;
38085;SDS011;23896;50.678;10.924;2023-06-10T07:06:55;10.75;;;7.38;;
38085;SDS011;23896;50.678;10.924;2023-06-10T07:09:21;9.80;;;8.63;;
38085;SDS011;23896;50.678;10.924;2023-06-10T07:11:47;11.70;;;9.20;;
38085;SDS011;23896;50.678;10.924;2023-06-10T07:14:16;11.77;;;9.32;;
38085;SDS011;23896;50.678;10.924;2023-06-10T07:16:43;10.25;;;8.05;;
38085;SDS011;23896;50.678;10.924;2023-06-10T07:19:11;11.32;;;8.60;;
38085;SDS011;23896;50.678;10.924;2023-06-10T07:21:39;6.47;;;5.82;;
38085;SDS011;23896;50.678;10.924;2023-06-10T07:24:05;10.52;;;7.22;;
38085;SDS011;23896;50.678;10.924;2023-06-10T07:26:32;8.98;;;6.40;;
38085;SDS011;23896;50.678;10.924;2023-06-10T07:28:58;8.48;;;6.82;;
38085;SDS011;23896;50.678;10.924;2023-06-10T07:31:24;12.48;;;6.85;;
38085;SDS011;23896;50.678;10.924;2023-06-10T07:33:50;9.00;;;7.38;;
38085;SDS011;23896;50.678;10.924;2023-06-10T07:36:18;11.68;;;8.75;;
38085;SDS011;23896;50.678;10.924;2023-06-10T07:38:44;9.40;;;8.15;;
38085;SDS011;23896;50.678;10.924;2023-06-10T07:41:10;12.07;;;8.05;;
38085;SDS011;23896;50.678;10.924;2023-06-10T07:43:37;10.13;;;7.10;;
38085;SDS011;23896;50.678;10.924;2023-06-10T07:46:03;7.60;;;6.70;;
38085;SDS011;23896;50.678;10.924;2023-06-10T07:48:33;10.82;;;8.38;;
38085;SDS011;23896;50.678;10.924;2023-06-10T07:51:00;10.48;;;6.20;;
38085;SDS011;23896;50.678;10.924;2023-06-10T07:53:26;13.45;;;8.30;;
38085;SDS011;23896;50.678;10.924;2023-06-10T07:55:52;10.30;;;6.57;;
38085;SDS011;23896;50.678;10.924;2023-06-10T07:58:21;7.80;;;7.00;;
38085;SDS011;23896;50.678;10.924;2023-06-10T08:00:48;6.90;;;6.22;;
38085;SDS011;23896;50.678;10.924;2023-06-10T08:03:14;9.93;;;7.43;;
38085;SDS011;23896;50.678;10.924;2023-06-10T08:05:40;10.68;;;6.90;;
38085;SDS011;23896;50.678;10.924;2023-06-10T08:08:06;7.80;;;6.30;;
38085;SDS011;23896;50.678;10.924;2023-06-10T08:10:32;8.50;;;7.00;;
38085;SDS011;23896;50.678;10.924;2023-06-10T08:12:59;10.35;;;8.10;;
38085;SDS011;23896;50.678;10.924;2023-06-10T08:15:25;10.70;;;7.07;;
38085;SDS011;23896;50.678;10.924;2023-06-10T08:17:54;7.43;;;6.50;;
38085;SDS011;23896;50.678;10.924;2023-06-10T08:20:22;7.00;;;6.40;;
38085;SDS011;23896;50.678;10.924;2023-06-10T08:22:48;9.20;;;6.45;;
38085;SDS011;23896;50.678;10.924;2023-06-10T08:25:14;8.82;;;5.78;;
38085;SDS011;23896;50.678;10.924;2023-06-10T08:27:41;7.35;;;5.80;;
38085;SDS011;23896;50.678;10.924;2023-06-10T08:30:07;6.57;;;5.97;;
38085;SDS011;23896;50.678;10.924;2023-06-10T08:32:38;7.70;;;7.00;;
38085;SDS011;23896;50.678;10.924;2023-06-10T08:35:05;9.63;;;6.78;;
38085;SDS011;23896;50.678;10.924;2023-06-10T08:37:31;9.70;;;5.95;;
38085;SDS011;23896;50.678;10.924;2023-06-10T08:39:57;10.90;;;7.82;;
38085;SDS011;23896;50.678;10.924;2023-06-10T08:42:28;8.30;;;6.35;;
38085;SDS011;23896;50.678;10.924;2023-06-10T08:44:55;7.72;;;6.60;;
38085;SDS011;23896;50.678;10.924;2023-06-10T08:47:23;8.32;;;6.25;;
38085;SDS011;23896;50.678;10.924;2023-06-10T08:49:50;10.23;;;7.13;;
38085;SDS011;23896;50.678;10.924;2023-06-10T08:52:19;16.67;;;6.78;;
38085;SDS011;23896;50.678;10.924;2023-06-10T08:54:50;7.82;;;6.53;;
38085;SDS011;23896;50.678;10.924;2023-06-10T08:57:19;10.23;;;7.68;;
38085;SDS011;23896;50.678;10.924;2023-06-10T08:59:46;9.57;;;6.60;;
38085;SDS011;23896;50.678;10.924;2023-06-10T09:02:13;9.18;;;6.47;;
38085;SDS011;23896;50.678;10.924;2023-06-10T09:04:42;8.48;;;6.60;;
38085;SDS011;23896;50.678;10.924;2023-06-10T09:07:09;10.05;;;7.55;;
38085;SDS011;23896;50.678;10.924;2023-06-10T09:09:38;8.38;;;6.35;;
38085;SDS011;23896;50.678;10.924;2023-06-10T09:12:05;7.97;;;6.68;;
38085;SDS011;23896;50.678;10.924;2023-06-10T09:14:31;8.02;;;6.45;;
38085;SDS011;23896;50.678;10.924;2023-06-10T09:17:03;8.27;;;6.47;;
38085;SDS011;23896;50.678;10.924;2023-06-10T09:19:36;7.35;;;6.65;;
38085;SDS011;23896;50.678;10.924;2023-06-10T09:22:15;7.03;;;6.32;;
38085;SDS011;23896;50.678;10.924;2023-06-10T09:24:42;8.25;;;7.43;;
38085;SDS011;23896;50.678;10.924;2023-06-10T09:27:10;7.40;;;6.63;;
38085;SDS011;23896;50.678;10.924;2023-06-10T09:29:45;8.95;;;6.10;;
38085;SDS011;23896;50.678;10.924;2023-06-10T09:32:12;9.52;;;6.07;;
38085;SDS011;23896;50.678;10.924;2023-06-10T09:34:39;7.15;;;6.28;;
38085;SDS011;23896;50.678;10.924;2023-06-10T09:37:06;8.23;;;5.55;;
38085;SDS011;23896;50.678;10.924;2023-06-10T09:39:33;9.15;;;5.97;;
38085;SDS011;23896;50.678;10.924;2023-06-10T09:42:01;8.88;;;5.65;;
38085;SDS011;23896;50.678;10.924;2023-06-10T09:44:27;10.07;;;6.05;;
38085;SDS011;23896;50.678;10.924;2023-06-10T09:46:56;7.82;;;6.18;;
38085;SDS011;23896;50.678;10.924;2023-06-10T09:49:24;10.45;;;7.13;;
38085;SDS011;23896;50.678;10.924;2023-06-10T09:51:54;7.45;;;5.18;;
38085;SDS011;23896;50.678;10.924;2023-06-10T09:54:21;13.48;;;5.70;;
38085;SDS011;23896;50.678;10.924;2023-06-10T09:56:48;8.00;;;5.80;;
38085;SDS011;23896;50.678;10.924;2023-06-10T09:59:15;8.75;;;6.03;;
38085;SDS011;23896;50.678;10.924;2023-06-10T10:01:44;7.50;;;6.72;;
38085;SDS011;23896;50.678;10.924;2023-06-10T10:04:24;7.18;;;5.13;;
38085;SDS011;23896;50.678;10.924;2023-06-10T10:06:50;8.98;;;5.07;;
38085;SDS011;23896;50.678;10.924;2023-06-10T10:09:16;7.72;;;5.35;;
38085;SDS011;23896;50.678;10.924;2023-06-10T10:11:44;7.35;;;4.60;;
38085;SDS011;23896;50.678;10.924;2023-06-10T10:14:10;9.50;;;5.10;;
38085;SDS011;23896;50.678;10.924;2023-06-10T10:16:37;5.35;;;4.85;;
38085;SDS011;23896;50.678;10.924;2023-06-10T10:19:10;6.05;;;5.35;;
38085;SDS011;23896;50.678;10.924;2023-06-10T10:21:43;8.15;;;5.13;;
38085;SDS011;23896;50.678;10.924;2023-06-10T10:24:16;7.63;;;5.88;;
38085;SDS011;23896;50.678;10.924;2023-06-10T10:26:46;10.05;;;5.82;;
38085;SDS011;23896;50.678;10.924;2023-06-10T10:29:16;10.38;;;4.80;;
38085;SDS011;23896;50.678;10.924;2023-06-10T10:34:46;7.35;;;5.25;;
38085;SDS011;23896;50.678;10.924;2023-06-10T10:37:23;7.30;;;5.35;;
38085;SDS011;23896;50.678;10.924;2023-06-10T10:39:50;5.05;;;4.55;;
38085;SDS011;23896;50.678;10.924;2023-06-10T10:42:19;6.18;;;4.85;;
38085;SDS011;23896;50.678;10.924;2023-06-10T10:44:46;7.07;;;5.20;;
38085;SDS011;23896;50.678;10.924;2023-06-10T10:47:12;5.55;;;5.05;;
38085;SDS011;23896;50.678;10.924;2023-06-10T10:49:39;6.22;;;4.93;;
38085;SDS011;23896;50.678;10.924;2023-06-10T10:52:11;6.75;;;5.10;;
38085;SDS011;23896;50.678;10.924;2023-06-10T10:54:39;8.43;;;5.97;;
38085;SDS011;23896;50.678;10.924;2023-06-10T10:57:20;9.52;;;6.32;;
38085;SDS011;23896;50.678;10.924;2023-06-10T10:59:55;6.45;;;5.53;;
38085;SDS011;23896;50.678;10.924;2023-06-10T11:02:33;6.38;;;5.07;;
38085;SDS011;23896;50.678;10.924;2023-06-10T11:05:00;6.85;;;5.15;;
38085;SDS011;23896;50.678;10.924;2023-06-10T11:07:30;6.60;;;5.05;;
38085;SDS011;23896;50.678;10.924;2023-06-10T11:09:58;6.00;;;5.40;;
38085;SDS011;23896;50.678;10.924;2023-06-10T11:12:26;9.00;;;5.05;;
38085;SDS011;23896;50.678;10.924;2023-06-10T11:14:54;6.28;;;5.53;;
38085;SDS011;23896;50.678;10.924;2023-06-10T11:17:23;5.38;;;4.88;;
38085;SDS011;23896;50.678;10.924;2023-06-10T11:19:50;5.90;;;5.20;;
38085;SDS011;23896;50.678;10.924;2023-06-10T11:22:17;6.00;;;5.45;;
38085;SDS011;23896;50.678;10.924;2023-06-10T11:24:47;8.70;;;6.20;;
38085;SDS011;23896;50.678;10.924;2023-06-10T11:27:14;6.72;;;5.18;;
38085;SDS011;23896;50.678;10.924;2023-06-10T11:32:20;8.27;;;5.82;;
38085;SDS011;23896;50.678;10.924;2023-06-10T11:34:52;6.18;;;5.32;;
38085;SDS011;23896;50.678;10.924;2023-06-10T11:37:20;6.82;;;6.10;;
38085;SDS011;23896;50.678;10.924;2023-06-10T11:39:49;7.72;;;5.90;;
38085;SDS011;23896;50.678;10.924;2023-06-10T11:42:17;6.07;;;5.47;;
38085;SDS011;23896;50.678;10.924;2023-06-10T11:44:49;7.47;;;5.45;;
38085;SDS011;23896;50.678;10.924;2023-06-10T11:47:16;6.40;;;5.78;;
38085;SDS011;23896;50.678;10.924;2023-06-10T11:49:42;6.75;;;6.13;;
38085;SDS011;23896;50.678;10.924;2023-06-10T11:52:09;8.05;;;5.90;;
38085;SDS011;23896;50.678;10.924;2023-06-10T11:54:36;7.80;;;6.05;;
38085;SDS011;23896;50.678;10.924;2023-06-10T11:57:02;6.10;;;5.60;;
38085;SDS011;23896;50.678;10.924;2023-06-10T11:59:29;7.90;;;5.68;;
38085;SDS011;23896;50.678;10.924;2023-06-10T12:02:01;5.82;;;5.32;;
38085;SDS011;23896;50.678;10.924;2023-06-10T12:04:28;6.03;;;5.38;;
38085;SDS011;23896;50.678;10.924;2023-06-10T12:06:55;6.30;;;5.80;;
38085;SDS011;23896;50.678;10.924;2023-06-10T12:09:25;6.13;;;5.53;;
38085;SDS011;23896;50.678;10.924;2023-06-10T12:11:54;6.30;;;5.75;;
38085;SDS011;23896;50.678;10.924;2023-06-10T12:16:59;6.53;;;5.93;;
38085;SDS011;23896;50.678;10.924;2023-06-10T12:19:25;6.82;;;6.18;;
38085;SDS011;23896;50.678;10.924;2023-06-10T12:21:51;10.35;;;6.25;;
38085;SDS011;23896;50.678;10.924;2023-06-10T12:24:18;7.90;;;6.63;;
38085;SDS011;23896;50.678;10.924;2023-06-10T12:26:45;6.78;;;6.03;;
38085;SDS011;23896;50.678;10.924;2023-06-10T12:29:16;7.88;;;5.97;;
38085;SDS011;23896;50.678;10.924;2023-06-10T12:31:54;7.32;;;6.63;;
38085;SDS011;23896;50.678;10.924;2023-06-10T12:37:01;7.78;;;6.55;;
38085;SDS011;23896;50.678;10.924;2023-06-10T12:39:31;11.95;;;6.88;;
38085;SDS011;23896;50.678;10.924;2023-06-10T12:41:58;7.07;;;6.38;;
38085;SDS011;23896;50.678;10.924;2023-06-10T12:44:28;8.73;;;6.53;;
38085;SDS011;23896;50.678;10.924;2023-06-10T12:46:54;8.25;;;6.80;;
38085;SDS011;23896;50.678;10.924;2023-06-10T12:49:22;7.32;;;6.57;;
38085;SDS011;23896;50.678;10.924;2023-06-10T12:51:48;9.45;;;7.22;;
38085;SDS011;23896;50.678;10.924;2023-06-10T12:54:14;7.80;;;7.20;;
38085;SDS011;23896;50.678;10.924;2023-06-10T12:56:41;7.88;;;7.18;;
38085;SDS011;23896;50.678;10.924;2023-06-10T12:59:07;7.90;;;7.20;;
38085;SDS011;23896;50.678;10.924;2023-06-10T13:01:33;8.50;;;7.80;;
38085;SDS011;23896;50.678;10.924;2023-06-10T13:03:59;7.55;;;7.00;;
38085;SDS011;23896;50.678;10.924;2023-06-10T13:06:27;8.02;;;6.95;;
38085;SDS011;23896;50.678;10.924;2023-06-10T13:08:54;11.20;;;7.80;;
38085;SDS011;23896;50.678;10.924;2023-06-10T13:11:23;8.30;;;7.50;;
38085;SDS011;23896;50.678;10.924;2023-06-10T13:13:50;7.32;;;6.65;;
38085;SDS011;23896;50.678;10.924;2023-06-10T13:16:16;7.63;;;6.25;;
38085;SDS011;23896;50.678;10.924;2023-06-10T13:18:43;6.70;;;6.05;;
38085;SDS011;23896;50.678;10.924;2023-06-10T13:21:09;7.95;;;6.43;;
38085;SDS011;23896;50.678;10.924;2023-06-10T13:23:35;6.28;;;5.78;;
38085;SDS011;23896;50.678;10.924;2023-06-10T13:26:02;7.53;;;6.43;;
38085;SDS011;23896;50.678;10.924;2023-06-10T13:28:28;8.85;;;6.05;;
38085;SDS011;23896;50.678;10.924;2023-06-10T13:30:54;8.13;;;6.13;;
38085;SDS011;23896;50.678;10.924;2023-06-10T13:33:20;8.07;;;5.57;;
38085;SDS011;23896;50.678;10.924;2023-06-10T13:35:47;5.45;;;4.95;;
38085;SDS011;23896;50.678;10.924;2023-06-10T13:38:13;6.78;;;6.13;;
38085;SDS011;23896;50.678;10.924;2023-06-10T13:40:40;6.55;;;5.75;;
38085;SDS011;23896;50.678;10.924;2023-06-10T13:43:06;6.13;;;5.50;;
38085;SDS011;23896;50.678;10.924;2023-06-10T13:45:36;5.45;;;4.95;;
38085;SDS011;23896;50.678;10.924;2023-06-10T13:48:05;5.97;;;5.40;;
38085;SDS011;23896;50.678;10.924;2023-06-10T13:50:34;5.68;;;5.18;;
38085;SDS011;23896;50.678;10.924;2023-06-10T13:53:00;7.32;;;5.53;;
38085;SDS011;23896;50.678;10.924;2023-06-10T13:55:31;5.30;;;4.80;;
38085;SDS011;23896;50.678;10.924;2023-06-10T13:57:57;7.78;;;6.38;;
38085;SDS011;23896;50.678;10.924;2023-06-10T14:00:23;5.82;;;5.15;;
38085;SDS011;23896;50.678;10.924;2023-06-10T14:02:50;5.95;;;4.97;;
38085;SDS011;23896;50.678;10.924;2023-06-10T14:05:19;5.90;;;4.50;;
38085;SDS011;23896;50.678;10.924;2023-06-10T14:07:45;5.43;;;5.03;;
38085;SDS011;23896;50.678;10.924;2023-06-10T14:10:13;5.50;;;5.00;;
38085;SDS011;23896;50.678;10.924;2023-06-10T14:12:39;5.28;;;4.35;;
38085;SDS011;23896;50.678;10.924;2023-06-10T14:15:05;5.18;;;4.63;;
38085;SDS011;23896;50.678;10.924;2023-06-10T14:17:32;5.30;;;4.80;;
38085;SDS011;23896;50.678;10.924;2023-06-10T14:19:58;7.63;;;4.28;;
38085;SDS011;23896;50.678;10.924;2023-06-10T14:22:24;6.43;;;4.38;;
38085;SDS011;23896;50.678;10.924;2023-06-10T14:24:54;5.45;;;4.95;;
38085;SDS011;23896;50.678;10.924;2023-06-10T14:27:20;4.88;;;4.50;;
38085;SDS011;23896;50.678;10.924;2023-06-10T14:29:46;5.10;;;4.70;;
38085;SDS011;23896;50.678;10.924;2023-06-10T14:32:12;4.80;;;4.40;;
38085;SDS011;23896;50.678;10.924;2023-06-10T14:34:38;8.07;;;5.03;;
38085;SDS011;23896;50.678;10.924;2023-06-10T14:37:06;5.88;;;4.95;;
38085;SDS011;23896;50.678;10.924;2023-06-10T14:39:33;5.13;;;4.65;;
38085;SDS011;23896;50.678;10.924;2023-06-10T14:41:59;5.40;;;4.32;;
38085;SDS011;23896;50.678;10.924;2023-06-10T14:44:28;6.45;;;4.50;;
38085;SDS011;23896;50.678;10.924;2023-06-10T14:46:55;8.13;;;4.45;;
38085;SDS011;23896;50.678;10.924;2023-06-10T14:49:21;5.50;;;4.85;;
38085;SDS011;23896;50.678;10.924;2023-06-10T14:51:47;5.45;;;4.95;;